Terminal Aerodrome Forecast
Issued by NWS

Current Version | Previous Version | Text Only | Print | Product List | Glossary On
Versions: 1 2 3 4 5 6 7 8 9 10 11 12 13 14 15 16 17 18 19 20 21 22 23 24 25 26 27 28 29 30 31 32 33 34 35 36 37 38 39 40 41 42 43 44
000
FTUS45 KGJT 241859 AAA
TAFMTJ
TAF AMD
KMTJ 241859Z 2419/2518 00000KT P6SM VCSH SCT018 BKN035 BKN060
     FM242000 33004KT P6SM VCSH OVC035
      TEMPO 2420/2424 2SM -SHSN BR OVC025
     FM250200 26005KT P6SM BKN035
     FM250300 23005KT P6SM OVC025
     FM251400 15004KT P6SM BKN050=

USA.gov is the U.S. government's official web portal to all federal, state and local government web resources and services.